sensor_id;sensor_type;location;lat;lon;timestamp;temperature;humidity
16823;DHT22;8528;49.976;11.858;2023-04-16T00:01:40;6.40;99.90
16823;DHT22;8528;49.976;11.858;2023-04-16T00:04:07;6.40;99.90
16823;DHT22;8528;49.976;11.858;2023-04-16T00:06:35;6.40;99.90
16823;DHT22;8528;49.976;11.858;2023-04-16T00:09:02;6.40;99.90
16823;DHT22;8528;49.976;11.858;2023-04-16T00:11:30;6.40;99.90
16823;DHT22;8528;49.976;11.858;2023-04-16T00:13:56;6.40;99.90
16823;DHT22;8528;49.976;11.858;2023-04-16T00:16:23;6.30;99.90
16823;DHT22;8528;49.976;11.858;2023-04-16T00:19:11;6.30;99.90
16823;DHT22;8528;49.976;11.858;2023-04-16T00:21:38;6.30;99.90
16823;DHT22;8528;49.976;11.858;2023-04-16T00:24:05;6.30;99.90
16823;DHT22;8528;49.976;11.858;2023-04-16T00:26:31;6.30;99.90
16823;DHT22;8528;49.976;11.858;2023-04-16T00:28:58;6.30;99.90
16823;DHT22;8528;49.976;11.858;2023-04-16T00:31:30;6.20;99.90
16823;DHT22;8528;49.976;11.858;2023-04-16T00:33:58;6.20;99.90
16823;DHT22;8528;49.976;11.858;2023-04-16T00:36:26;6.20;99.90
16823;DHT22;8528;49.976;11.858;2023-04-16T00:38:54;6.20;99.90
16823;DHT22;8528;49.976;11.858;2023-04-16T00:41:21;6.20;99.90
16823;DHT22;8528;49.976;11.858;2023-04-16T00:43:49;6.20;99.90
16823;DHT22;8528;49.976;11.858;2023-04-16T00:46:16;6.20;99.90
16823;DHT22;8528;49.976;11.858;2023-04-16T00:48:45;6.20;99.90
16823;DHT22;8528;49.976;11.858;2023-04-16T00:51:12;6.20;99.90
16823;DHT22;8528;49.976;11.858;2023-04-16T00:53:39;6.20;99.90
16823;DHT22;8528;49.976;11.858;2023-04-16T00:56:06;6.10;99.90
16823;DHT22;8528;49.976;11.858;2023-04-16T00:58:34;6.20;99.90
16823;DHT22;8528;49.976;11.858;2023-04-16T01:01:01;6.20;99.90
16823;DHT22;8528;49.976;11.858;2023-04-16T01:03:39;6.20;99.90
16823;DHT22;8528;49.976;11.858;2023-04-16T01:06:07;6.20;99.90
16823;DHT22;8528;49.976;11.858;2023-04-16T01:08:34;6.20;99.90
16823;DHT22;8528;49.976;11.858;2023-04-16T01:11:02;6.20;99.90
16823;DHT22;8528;49.976;11.858;2023-04-16T01:13:29;6.10;99.90
16823;DHT22;8528;49.976;11.858;2023-04-16T01:15:56;6.20;99.90
16823;DHT22;8528;49.976;11.858;2023-04-16T01:18:25;6.20;99.90
16823;DHT22;8528;49.976;11.858;2023-04-16T01:20:51;6.20;99.90
16823;DHT22;8528;49.976;11.858;2023-04-16T01:23:18;6.20;99.90
16823;DHT22;8528;49.976;11.858;2023-04-16T01:25:46;6.20;99.90
16823;DHT22;8528;49.976;11.858;2023-04-16T01:28:13;6.20;99.90
16823;DHT22;8528;49.976;11.858;2023-04-16T01:30:40;6.20;99.90
16823;DHT22;8528;49.976;11.858;2023-04-16T01:33:10;6.20;99.90
16823;DHT22;8528;49.976;11.858;2023-04-16T01:35:38;6.20;99.90
16823;DHT22;8528;49.976;11.858;2023-04-16T01:38:07;6.20;99.90
16823;DHT22;8528;49.976;11.858;2023-04-16T01:40:35;6.20;99.90
16823;DHT22;8528;49.976;11.858;2023-04-16T01:43:03;6.20;99.90
16823;DHT22;8528;49.976;11.858;2023-04-16T01:45:31;6.20;99.90
16823;DHT22;8528;49.976;11.858;2023-04-16T01:47:57;6.20;99.90
16823;DHT22;8528;49.976;11.858;2023-04-16T01:50:24;6.20;99.90
16823;DHT22;8528;49.976;11.858;2023-04-16T01:52:51;6.20;99.90
16823;DHT22;8528;49.976;11.858;2023-04-16T01:55:18;6.20;99.90
16823;DHT22;8528;49.976;11.858;2023-04-16T01:57:45;6.20;99.90
16823;DHT22;8528;49.976;11.858;2023-04-16T02:00:12;6.20;99.90
16823;DHT22;8528;49.976;11.858;2023-04-16T02:02:39;6.20;99.90
16823;DHT22;8528;49.976;11.858;2023-04-16T02:05:06;6.20;99.90
16823;DHT22;8528;49.976;11.858;2023-04-16T02:07:33;6.20;99.90
16823;DHT22;8528;49.976;11.858;2023-04-16T02:10:00;6.10;99.90
16823;DHT22;8528;49.976;11.858;2023-04-16T02:12:27;6.10;99.90
16823;DHT22;8528;49.976;11.858;2023-04-16T02:14:54;6.20;99.90
16823;DHT22;8528;49.976;11.858;2023-04-16T02:17:21;6.20;99.90
16823;DHT22;8528;49.976;11.858;2023-04-16T02:19:48;6.20;99.90
16823;DHT22;8528;49.976;11.858;2023-04-16T02:22:15;6.20;99.90
16823;DHT22;8528;49.976;11.858;2023-04-16T02:24:42;6.20;99.90
16823;DHT22;8528;49.976;11.858;2023-04-16T02:27:09;6.20;99.90
16823;DHT22;8528;49.976;11.858;2023-04-16T02:29:35;6.20;99.90
16823;DHT22;8528;49.976;11.858;2023-04-16T02:32:02;6.20;99.90
16823;DHT22;8528;49.976;11.858;2023-04-16T02:34:30;6.20;99.90
16823;DHT22;8528;49.976;11.858;2023-04-16T02:36:56;6.20;99.90
16823;DHT22;8528;49.976;11.858;2023-04-16T02:39:23;6.20;99.90
16823;DHT22;8528;49.976;11.858;2023-04-16T02:41:52;6.20;99.90
16823;DHT22;8528;49.976;11.858;2023-04-16T02:44:20;6.20;99.90
16823;DHT22;8528;49.976;11.858;2023-04-16T02:46:47;6.20;99.90
16823;DHT22;8528;49.976;11.858;2023-04-16T02:49:14;6.20;99.90
16823;DHT22;8528;49.976;11.858;2023-04-16T02:51:40;6.20;99.90
16823;DHT22;8528;49.976;11.858;2023-04-16T02:54:07;6.20;99.90
16823;DHT22;8528;49.976;11.858;2023-04-16T02:56:34;6.20;99.90
16823;DHT22;8528;49.976;11.858;2023-04-16T02:59:01;6.20;99.90
16823;DHT22;8528;49.976;11.858;2023-04-16T03:01:28;6.20;99.90
16823;DHT22;8528;49.976;11.858;2023-04-16T03:03:55;6.10;99.90
16823;DHT22;8528;49.976;11.858;2023-04-16T03:06:22;6.10;99.90
16823;DHT22;8528;49.976;11.858;2023-04-16T03:08:49;6.20;99.90
16823;DHT22;8528;49.976;11.858;2023-04-16T03:11:16;6.20;99.90
16823;DHT22;8528;49.976;11.858;2023-04-16T03:13:43;6.20;99.90
16823;DHT22;8528;49.976;11.858;2023-04-16T03:16:09;6.10;99.90
16823;DHT22;8528;49.976;11.858;2023-04-16T03:18:37;6.10;99.90
16823;DHT22;8528;49.976;11.858;2023-04-16T03:21:04;6.20;99.90
16823;DHT22;8528;49.976;11.858;2023-04-16T03:23:30;6.20;99.90
16823;DHT22;8528;49.976;11.858;2023-04-16T03:25:57;6.10;99.90
16823;DHT22;8528;49.976;11.858;2023-04-16T03:32:11;6.10;99.90
16823;DHT22;8528;49.976;11.858;2023-04-16T03:34:38;6.10;99.90
16823;DHT22;8528;49.976;11.858;2023-04-16T03:37:05;6.10;99.90
16823;DHT22;8528;49.976;11.858;2023-04-16T03:39:32;6.20;99.90
16823;DHT22;8528;49.976;11.858;2023-04-16T03:42:00;6.10;99.90
16823;DHT22;8528;49.976;11.858;2023-04-16T03:44:28;6.10;99.90
16823;DHT22;8528;49.976;11.858;2023-04-16T03:46:55;6.10;99.90
16823;DHT22;8528;49.976;11.858;2023-04-16T03:49:22;6.10;99.90
16823;DHT22;8528;49.976;11.858;2023-04-16T03:51:48;6.10;99.90
16823;DHT22;8528;49.976;11.858;2023-04-16T03:54:15;6.10;99.90
16823;DHT22;8528;49.976;11.858;2023-04-16T03:56:42;6.10;99.90
16823;DHT22;8528;49.976;11.858;2023-04-16T03:59:09;6.10;99.90
16823;DHT22;8528;49.976;11.858;2023-04-16T04:01:36;6.10;99.90
16823;DHT22;8528;49.976;11.858;2023-04-16T04:04:03;6.10;99.90
16823;DHT22;8528;49.976;11.858;2023-04-16T04:06:31;6.10;99.90
16823;DHT22;8528;49.976;11.858;2023-04-16T04:08:58;6.10;99.90
16823;DHT22;8528;49.976;11.858;2023-04-16T04:11:24;6.10;99.90
16823;DHT22;8528;49.976;11.858;2023-04-16T04:13:52;6.00;99.90
16823;DHT22;8528;49.976;11.858;2023-04-16T04:16:18;6.10;99.90
16823;DHT22;8528;49.976;11.858;2023-04-16T04:18:45;6.10;99.90
16823;DHT22;8528;49.976;11.858;2023-04-16T04:21:12;6.10;99.90
16823;DHT22;8528;49.976;11.858;2023-04-16T04:23:39;6.10;99.90
16823;DHT22;8528;49.976;11.858;2023-04-16T04:26:07;6.10;99.90
16823;DHT22;8528;49.976;11.858;2023-04-16T04:28:34;6.10;99.90
16823;DHT22;8528;49.976;11.858;2023-04-16T04:31:01;6.10;99.90
16823;DHT22;8528;49.976;11.858;2023-04-16T04:33:28;6.10;99.90
16823;DHT22;8528;49.976;11.858;2023-04-16T04:35:55;6.10;99.90
16823;DHT22;8528;49.976;11.858;2023-04-16T04:38:22;6.10;99.90
16823;DHT22;8528;49.976;11.858;2023-04-16T04:40:51;6.10;99.90
16823;DHT22;8528;49.976;11.858;2023-04-16T04:43:19;6.10;99.90
16823;DHT22;8528;49.976;11.858;2023-04-16T04:45:46;6.20;99.90
16823;DHT22;8528;49.976;11.858;2023-04-16T04:48:15;6.10;99.90
16823;DHT22;8528;49.976;11.858;2023-04-16T04:50:43;6.20;99.90
16823;DHT22;8528;49.976;11.858;2023-04-16T04:53:11;6.20;99.90
16823;DHT22;8528;49.976;11.858;2023-04-16T04:55:40;6.20;99.90
16823;DHT22;8528;49.976;11.858;2023-04-16T04:58:07;6.20;99.90
16823;DHT22;8528;49.976;11.858;2023-04-16T05:00:34;6.20;99.90
16823;DHT22;8528;49.976;11.858;2023-04-16T05:03:05;6.20;99.90
16823;DHT22;8528;49.976;11.858;2023-04-16T05:05:35;6.20;99.90
16823;DHT22;8528;49.976;11.858;2023-04-16T05:08:02;6.30;99.90
16823;DHT22;8528;49.976;11.858;2023-04-16T05:10:29;6.30;99.90
16823;DHT22;8528;49.976;11.858;2023-04-16T05:12:55;6.30;99.90
16823;DHT22;8528;49.976;11.858;2023-04-16T05:15:22;6.40;99.90
16823;DHT22;8528;49.976;11.858;2023-04-16T05:17:49;6.40;99.90
16823;DHT22;8528;49.976;11.858;2023-04-16T05:20:16;6.40;99.90
16823;DHT22;8528;49.976;11.858;2023-04-16T05:22:43;6.40;99.90
16823;DHT22;8528;49.976;11.858;2023-04-16T05:25:10;6.50;99.90
16823;DHT22;8528;49.976;11.858;2023-04-16T05:27:37;6.50;99.90
16823;DHT22;8528;49.976;11.858;2023-04-16T05:30:04;6.50;99.90
16823;DHT22;8528;49.976;11.858;2023-04-16T05:32:31;6.50;99.90
16823;DHT22;8528;49.976;11.858;2023-04-16T05:34:58;6.50;99.90
16823;DHT22;8528;49.976;11.858;2023-04-16T05:37:25;6.50;99.90
16823;DHT22;8528;49.976;11.858;2023-04-16T05:39:52;6.50;99.90
16823;DHT22;8528;49.976;11.858;2023-04-16T05:42:19;6.60;99.90
16823;DHT22;8528;49.976;11.858;2023-04-16T05:44:46;6.70;99.90
16823;DHT22;8528;49.976;11.858;2023-04-16T05:47:13;6.70;99.90
16823;DHT22;8528;49.976;11.858;2023-04-16T05:49:39;6.80;99.90
16823;DHT22;8528;49.976;11.858;2023-04-16T05:52:06;6.80;99.90
16823;DHT22;8528;49.976;11.858;2023-04-16T05:54:33;6.90;99.90
16823;DHT22;8528;49.976;11.858;2023-04-16T05:57:00;6.90;99.90
16823;DHT22;8528;49.976;11.858;2023-04-16T05:59:27;6.90;99.90
16823;DHT22;8528;49.976;11.858;2023-04-16T06:01:55;7.00;99.90
16823;DHT22;8528;49.976;11.858;2023-04-16T06:04:22;7.00;99.90
16823;DHT22;8528;49.976;11.858;2023-04-16T06:06:49;7.10;99.90
16823;DHT22;8528;49.976;11.858;2023-04-16T06:09:16;7.00;99.90
16823;DHT22;8528;49.976;11.858;2023-04-16T06:11:44;7.10;99.90
16823;DHT22;8528;49.976;11.858;2023-04-16T06:14:11;7.20;99.90
16823;DHT22;8528;49.976;11.858;2023-04-16T06:16:38;7.20;99.90
16823;DHT22;8528;49.976;11.858;2023-04-16T06:19:05;7.30;99.90
16823;DHT22;8528;49.976;11.858;2023-04-16T06:21:32;7.40;99.90
16823;DHT22;8528;49.976;11.858;2023-04-16T06:23:59;7.50;99.90
16823;DHT22;8528;49.976;11.858;2023-04-16T06:26:26;7.60;99.90
16823;DHT22;8528;49.976;11.858;2023-04-16T06:28:53;7.60;99.90
16823;DHT22;8528;49.976;11.858;2023-04-16T06:31:20;7.70;99.90
16823;DHT22;8528;49.976;11.858;2023-04-16T06:33:47;7.80;99.90
16823;DHT22;8528;49.976;11.858;2023-04-16T06:36:14;7.90;99.90
16823;DHT22;8528;49.976;11.858;2023-04-16T06:38:42;8.00;99.90
16823;DHT22;8528;49.976;11.858;2023-04-16T06:41:09;8.10;99.90
16823;DHT22;8528;49.976;11.858;2023-04-16T06:43:36;8.20;99.90
16823;DHT22;8528;49.976;11.858;2023-04-16T06:46:03;8.30;99.90
16823;DHT22;8528;49.976;11.858;2023-04-16T06:48:34;8.40;99.90
16823;DHT22;8528;49.976;11.858;2023-04-16T06:51:00;8.50;99.90
16823;DHT22;8528;49.976;11.858;2023-04-16T06:53:27;8.60;99.90
16823;DHT22;8528;49.976;11.858;2023-04-16T06:55:54;8.70;99.90
16823;DHT22;8528;49.976;11.858;2023-04-16T06:58:21;8.70;99.90
16823;DHT22;8528;49.976;11.858;2023-04-16T07:00:48;8.80;99.90
16823;DHT22;8528;49.976;11.858;2023-04-16T07:03:39;8.90;99.90
16823;DHT22;8528;49.976;11.858;2023-04-16T07:06:07;9.00;99.90
16823;DHT22;8528;49.976;11.858;2023-04-16T07:08:33;9.10;99.90
16823;DHT22;8528;49.976;11.858;2023-04-16T07:11:00;9.10;99.90
16823;DHT22;8528;49.976;11.858;2023-04-16T07:13:27;9.10;99.90
16823;DHT22;8528;49.976;11.858;2023-04-16T07:15:54;9.20;99.90
16823;DHT22;8528;49.976;11.858;2023-04-16T07:18:21;9.20;99.90
16823;DHT22;8528;49.976;11.858;2023-04-16T07:20:48;9.30;99.90
16823;DHT22;8528;49.976;11.858;2023-04-16T07:23:15;9.30;99.90
16823;DHT22;8528;49.976;11.858;2023-04-16T07:25:41;9.30;99.90
16823;DHT22;8528;49.976;11.858;2023-04-16T07:28:10;9.40;99.90
16823;DHT22;8528;49.976;11.858;2023-04-16T07:30:36;9.40;99.90
16823;DHT22;8528;49.976;11.858;2023-04-16T07:33:03;9.60;99.90
16823;DHT22;8528;49.976;11.858;2023-04-16T07:35:31;9.60;99.90
16823;DHT22;8528;49.976;11.858;2023-04-16T07:37:58;9.70;99.90
16823;DHT22;8528;49.976;11.858;2023-04-16T07:40:25;9.70;99.90
16823;DHT22;8528;49.976;11.858;2023-04-16T07:42:52;9.80;99.90
16823;DHT22;8528;49.976;11.858;2023-04-16T07:45:19;9.90;99.90
16823;DHT22;8528;49.976;11.858;2023-04-16T07:47:46;10.00;99.90
16823;DHT22;8528;49.976;11.858;2023-04-16T07:50:13;10.00;99.90
16823;DHT22;8528;49.976;11.858;2023-04-16T07:52:40;10.00;99.90
16823;DHT22;8528;49.976;11.858;2023-04-16T07:55:08;10.10;99.90
16823;DHT22;8528;49.976;11.858;2023-04-16T07:57:35;10.10;99.90
16823;DHT22;8528;49.976;11.858;2023-04-16T08:00:02;10.10;99.90
16823;DHT22;8528;49.976;11.858;2023-04-16T08:02:30;10.20;99.90
16823;DHT22;8528;49.976;11.858;2023-04-16T08:04:58;10.30;99.90
16823;DHT22;8528;49.976;11.858;2023-04-16T08:07:25;10.50;99.90
16823;DHT22;8528;49.976;11.858;2023-04-16T08:09:52;10.50;99.90
16823;DHT22;8528;49.976;11.858;2023-04-16T08:12:20;10.80;99.90
16823;DHT22;8528;49.976;11.858;2023-04-16T08:14:47;10.90;99.90
16823;DHT22;8528;49.976;11.858;2023-04-16T08:17:15;11.10;99.90
16823;DHT22;8528;49.976;11.858;2023-04-16T08:19:42;11.20;99.90
16823;DHT22;8528;49.976;11.858;2023-04-16T08:22:11;11.20;99.90
16823;DHT22;8528;49.976;11.858;2023-04-16T08:24:38;11.30;99.90
16823;DHT22;8528;49.976;11.858;2023-04-16T08:27:05;11.30;99.90
16823;DHT22;8528;49.976;11.858;2023-04-16T08:29:44;11.30;99.90
16823;DHT22;8528;49.976;11.858;2023-04-16T08:32:11;11.30;99.90
16823;DHT22;8528;49.976;11.858;2023-04-16T08:34:38;11.10;99.90
16823;DHT22;8528;49.976;11.858;2023-04-16T08:37:04;11.00;99.90
16823;DHT22;8528;49.976;11.858;2023-04-16T08:39:31;10.80;99.90
16823;DHT22;8528;49.976;11.858;2023-04-16T08:42:01;10.70;99.90
16823;DHT22;8528;49.976;11.858;2023-04-16T08:44:35;10.60;99.90
16823;DHT22;8528;49.976;11.858;2023-04-16T08:47:07;10.70;99.90
16823;DHT22;8528;49.976;11.858;2023-04-16T08:49:35;10.50;99.90
16823;DHT22;8528;49.976;11.858;2023-04-16T08:52:15;10.60;99.90
16823;DHT22;8528;49.976;11.858;2023-04-16T08:55:02;10.70;99.90
16823;DHT22;8528;49.976;11.858;2023-04-16T08:57:37;10.80;99.90
16823;DHT22;8528;49.976;11.858;2023-04-16T09:00:06;10.90;99.90
16823;DHT22;8528;49.976;11.858;2023-04-16T09:02:33;11.00;99.90
16823;DHT22;8528;49.976;11.858;2023-04-16T09:05:03;10.90;99.90
16823;DHT22;8528;49.976;11.858;2023-04-16T09:07:31;11.00;99.90
16823;DHT22;8528;49.976;11.858;2023-04-16T09:09:59;11.10;99.90
16823;DHT22;8528;49.976;11.858;2023-04-16T09:12:26;11.30;99.90
16823;DHT22;8528;49.976;11.858;2023-04-16T09:14:54;11.60;99.90
16823;DHT22;8528;49.976;11.858;2023-04-16T09:17:22;11.80;99.90
16823;DHT22;8528;49.976;11.858;2023-04-16T09:19:49;12.10;99.90
16823;DHT22;8528;49.976;11.858;2023-04-16T09:22:16;12.20;99.90
16823;DHT22;8528;49.976;11.858;2023-04-16T09:24:43;12.30;99.90
16823;DHT22;8528;49.976;11.858;2023-04-16T09:27:11;12.20;99.90
16823;DHT22;8528;49.976;11.858;2023-04-16T09:29:39;12.10;99.90
16823;DHT22;8528;49.976;11.858;2023-04-16T09:32:08;12.10;99.90
16823;DHT22;8528;49.976;11.858;2023-04-16T09:34:59;12.20;99.90
16823;DHT22;8528;49.976;11.858;2023-04-16T09:37:30;12.40;99.90
16823;DHT22;8528;49.976;11.858;2023-04-16T09:40:01;12.70;99.90
16823;DHT22;8528;49.976;11.858;2023-04-16T09:46:13;12.90;99.90
16823;DHT22;8528;49.976;11.858;2023-04-16T09:48:40;12.80;99.90
16823;DHT22;8528;49.976;11.858;2023-04-16T09:51:07;12.80;99.90
16823;DHT22;8528;49.976;11.858;2023-04-16T09:53:34;12.70;99.90
16823;DHT22;8528;49.976;11.858;2023-04-16T09:56:03;12.60;99.90
16823;DHT22;8528;49.976;11.858;2023-04-16T09:58:31;12.50;99.90
16823;DHT22;8528;49.976;11.858;2023-04-16T10:01:03;12.60;99.90
16823;DHT22;8528;49.976;11.858;2023-04-16T10:03:32;12.70;99.90
16823;DHT22;8528;49.976;11.858;2023-04-16T10:06:07;12.80;99.90
16823;DHT22;8528;49.976;11.858;2023-04-16T10:08:35;12.90;99.90
16823;DHT22;8528;49.976;11.858;2023-04-16T10:11:01;13.10;99.90
16823;DHT22;8528;49.976;11.858;2023-04-16T10:13:28;13.30;99.90
16823;DHT22;8528;49.976;11.858;2023-04-16T10:15:56;13.50;99.90
16823;DHT22;8528;49.976;11.858;2023-04-16T10:18:24;13.40;99.90
16823;DHT22;8528;49.976;11.858;2023-04-16T10:20:52;13.10;99.90
16823;DHT22;8528;49.976;11.858;2023-04-16T10:23:20;13.00;99.90
16823;DHT22;8528;49.976;11.858;2023-04-16T10:25:48;13.30;99.90
16823;DHT22;8528;49.976;11.858;2023-04-16T10:28:15;13.60;99.90
16823;DHT22;8528;49.976;11.858;2023-04-16T10:30:44;13.50;99.90
16823;DHT22;8528;49.976;11.858;2023-04-16T10:33:23;13.40;99.90
16823;DHT22;8528;49.976;11.858;2023-04-16T10:36:05;13.90;99.90
16823;DHT22;8528;49.976;11.858;2023-04-16T10:38:33;14.00;99.90
16823;DHT22;8528;49.976;11.858;2023-04-16T10:41:02;14.40;99.90
16823;DHT22;8528;49.976;11.858;2023-04-16T10:43:31;14.90;99.90
16823;DHT22;8528;49.976;11.858;2023-04-16T10:48:43;14.20;99.90
16823;DHT22;8528;49.976;11.858;2023-04-16T10:51:51;13.70;99.90
16823;DHT22;8528;49.976;11.858;2023-04-16T10:54:20;13.70;99.90
16823;DHT22;8528;49.976;11.858;2023-04-16T10:56:48;13.90;99.90
16823;DHT22;8528;49.976;11.858;2023-04-16T10:59:20;14.80;99.90
16823;DHT22;8528;49.976;11.858;2023-04-16T11:01:50;15.40;99.90
16823;DHT22;8528;49.976;11.858;2023-04-16T11:09:57;17.40;99.90
16823;DHT22;8528;49.976;11.858;2023-04-16T11:12:40;17.80;97.50
16823;DHT22;8528;49.976;11.858;2023-04-16T11:15:10;17.80;98.40
16823;DHT22;8528;49.976;11.858;2023-04-16T11:17:45;18.00;97.60
16823;DHT22;8528;49.976;11.858;2023-04-16T11:22:50;17.70;95.90
16823;DHT22;8528;49.976;11.858;2023-04-16T11:25:27;17.70;95.20
16823;DHT22;8528;49.976;11.858;2023-04-16T11:27:57;17.50;92.40
16823;DHT22;8528;49.976;11.858;2023-04-16T11:30:32;16.70;92.10
16823;DHT22;8528;49.976;11.858;2023-04-16T11:33:10;16.50;92.70
16823;DHT22;8528;49.976;11.858;2023-04-16T11:35:38;16.50;92.40
16823;DHT22;8528;49.976;11.858;2023-04-16T11:38:05;16.70;92.50
16823;DHT22;8528;49.976;11.858;2023-04-16T11:40:33;16.70;92.90
16823;DHT22;8528;49.976;11.858;2023-04-16T11:43:15;16.90;92.90
16823;DHT22;8528;49.976;11.858;2023-04-16T11:45:59;16.80;93.30
16823;DHT22;8528;49.976;11.858;2023-04-16T11:48:53;16.40;96.70
16823;DHT22;8528;49.976;11.858;2023-04-16T11:51:21;15.70;98.70
16823;DHT22;8528;49.976;11.858;2023-04-16T11:53:50;15.30;99.90
16823;DHT22;8528;49.976;11.858;2023-04-16T11:56:25;14.90;99.90
16823;DHT22;8528;49.976;11.858;2023-04-16T11:59:12;14.40;99.90
16823;DHT22;8528;49.976;11.858;2023-04-16T12:01:41;13.90;99.90
16823;DHT22;8528;49.976;11.858;2023-04-16T12:04:13;13.70;99.90
16823;DHT22;8528;49.976;11.858;2023-04-16T12:09:30;13.30;99.90
16823;DHT22;8528;49.976;11.858;2023-04-16T12:11:57;13.10;99.90
16823;DHT22;8528;49.976;11.858;2023-04-16T12:14:24;13.00;99.90
16823;DHT22;8528;49.976;11.858;2023-04-16T12:16:51;12.80;99.90
16823;DHT22;8528;49.976;11.858;2023-04-16T12:19:18;12.60;99.90
16823;DHT22;8528;49.976;11.858;2023-04-16T12:21:46;12.50;99.90
16823;DHT22;8528;49.976;11.858;2023-04-16T12:24:16;12.40;99.90
16823;DHT22;8528;49.976;11.858;2023-04-16T12:26:47;12.40;99.90
16823;DHT22;8528;49.976;11.858;2023-04-16T12:29:21;12.50;99.90
16823;DHT22;8528;49.976;11.858;2023-04-16T12:31:49;12.60;99.90
16823;DHT22;8528;49.976;11.858;2023-04-16T12:34:16;12.60;99.90
16823;DHT22;8528;49.976;11.858;2023-04-16T12:36:44;12.60;99.90
16823;DHT22;8528;49.976;11.858;2023-04-16T12:39:13;12.80;99.90
16823;DHT22;8528;49.976;11.858;2023-04-16T12:41:41;13.00;99.90
16823;DHT22;8528;49.976;11.858;2023-04-16T12:44:10;13.30;99.90
16823;DHT22;8528;49.976;11.858;2023-04-16T12:46:39;13.40;99.90
16823;DHT22;8528;49.976;11.858;2023-04-16T12:49:06;13.80;99.90
16823;DHT22;8528;49.976;11.858;2023-04-16T12:51:34;14.30;99.90
16823;DHT22;8528;49.976;11.858;2023-04-16T12:54:03;14.80;99.90
16823;DHT22;8528;49.976;11.858;2023-04-16T12:56:31;15.40;99.90
16823;DHT22;8528;49.976;11.858;2023-04-16T12:58:57;16.80;99.90
16823;DHT22;8528;49.976;11.858;2023-04-16T13:01:24;18.30;99.90
16823;DHT22;8528;49.976;11.858;2023-04-16T13:03:51;19.40;94.20
16823;DHT22;8528;49.976;11.858;2023-04-16T13:06:19;19.40;86.60
16823;DHT22;8528;49.976;11.858;2023-04-16T13:08:46;19.50;84.90
16823;DHT22;8528;49.976;11.858;2023-04-16T13:11:13;18.90;87.60
16823;DHT22;8528;49.976;11.858;2023-04-16T13:13:40;18.30;91.00
16823;DHT22;8528;49.976;11.858;2023-04-16T13:16:06;17.70;92.40
16823;DHT22;8528;49.976;11.858;2023-04-16T13:18:35;17.00;93.80
16823;DHT22;8528;49.976;11.858;2023-04-16T13:21:02;16.40;95.40
16823;DHT22;8528;49.976;11.858;2023-04-16T13:23:30;16.20;96.40
16823;DHT22;8528;49.976;11.858;2023-04-16T13:25:57;16.00;96.70
16823;DHT22;8528;49.976;11.858;2023-04-16T13:28:24;15.70;97.20
16823;DHT22;8528;49.976;11.858;2023-04-16T13:30:51;15.30;98.10
16823;DHT22;8528;49.976;11.858;2023-04-16T13:33:19;15.40;97.10
16823;DHT22;8528;49.976;11.858;2023-04-16T13:35:48;15.20;98.40
16823;DHT22;8528;49.976;11.858;2023-04-16T13:38:15;15.20;98.90
16823;DHT22;8528;49.976;11.858;2023-04-16T13:40:42;15.30;97.50
16823;DHT22;8528;49.976;11.858;2023-04-16T13:43:09;15.30;97.90
16823;DHT22;8528;49.976;11.858;2023-04-16T13:45:36;15.50;98.40
16823;DHT22;8528;49.976;11.858;2023-04-16T13:48:03;15.90;97.90
16823;DHT22;8528;49.976;11.858;2023-04-16T13:50:30;16.20;98.70
16823;DHT22;8528;49.976;11.858;2023-04-16T13:52:58;16.70;98.10
16823;DHT22;8528;49.976;11.858;2023-04-16T13:55:24;16.90;97.30
16823;DHT22;8528;49.976;11.858;2023-04-16T13:57:51;16.80;95.70
16823;DHT22;8528;49.976;11.858;2023-04-16T14:00:18;16.80;96.10
16823;DHT22;8528;49.976;11.858;2023-04-16T14:02:45;16.40;96.10
16823;DHT22;8528;49.976;11.858;2023-04-16T14:05:14;15.80;96.90
16823;DHT22;8528;49.976;11.858;2023-04-16T14:07:41;15.20;99.40
16823;DHT22;8528;49.976;11.858;2023-04-16T14:10:08;14.60;99.90
16823;DHT22;8528;49.976;11.858;2023-04-16T14:12:36;14.20;99.90
16823;DHT22;8528;49.976;11.858;2023-04-16T14:15:07;13.80;99.90
16823;DHT22;8528;49.976;11.858;2023-04-16T14:17:35;13.40;99.90
16823;DHT22;8528;49.976;11.858;2023-04-16T14:20:05;13.30;99.90
16823;DHT22;8528;49.976;11.858;2023-04-16T14:22:32;13.30;99.90
16823;DHT22;8528;49.976;11.858;2023-04-16T14:24:59;13.30;99.90
16823;DHT22;8528;49.976;11.858;2023-04-16T14:27:27;13.40;99.90
16823;DHT22;8528;49.976;11.858;2023-04-16T14:29:54;13.30;99.90
16823;DHT22;8528;49.976;11.858;2023-04-16T14:32:21;13.20;99.90
16823;DHT22;8528;49.976;11.858;2023-04-16T14:34:47;13.00;99.90
16823;DHT22;8528;49.976;11.858;2023-04-16T14:37:16;13.00;99.90
16823;DHT22;8528;49.976;11.858;2023-04-16T14:39:43;13.00;99.90
16823;DHT22;8528;49.976;11.858;2023-04-16T14:42:10;13.10;99.90
16823;DHT22;8528;49.976;11.858;2023-04-16T14:44:37;13.10;99.90
16823;DHT22;8528;49.976;11.858;2023-04-16T14:47:04;13.10;99.90
16823;DHT22;8528;49.976;11.858;2023-04-16T14:49:32;13.00;99.90
16823;DHT22;8528;49.976;11.858;2023-04-16T14:52:00;13.00;99.90
16823;DHT22;8528;49.976;11.858;2023-04-16T14:54:28;12.80;99.90
16823;DHT22;8528;49.976;11.858;2023-04-16T14:56:54;12.70;99.90
16823;DHT22;8528;49.976;11.858;2023-04-16T14:59:22;12.70;99.90
16823;DHT22;8528;49.976;11.858;2023-04-16T15:01:49;12.90;99.90
16823;DHT22;8528;49.976;11.858;2023-04-16T15:04:16;12.90;99.90
16823;DHT22;8528;49.976;11.858;2023-04-16T15:06:43;12.90;99.90
16823;DHT22;8528;49.976;11.858;2023-04-16T15:09:12;12.90;99.90
16823;DHT22;8528;49.976;11.858;2023-04-16T15:11:38;12.70;99.90
16823;DHT22;8528;49.976;11.858;2023-04-16T15:14:05;12.80;99.90
16823;DHT22;8528;49.976;11.858;2023-04-16T15:16:32;12.80;99.90
16823;DHT22;8528;49.976;11.858;2023-04-16T15:18:59;13.00;99.90
16823;DHT22;8528;49.976;11.858;2023-04-16T15:21:28;13.00;99.90
16823;DHT22;8528;49.976;11.858;2023-04-16T15:23:55;13.00;99.90
16823;DHT22;8528;49.976;11.858;2023-04-16T15:26:22;12.90;99.90
16823;DHT22;8528;49.976;11.858;2023-04-16T15:28:48;13.10;99.90
16823;DHT22;8528;49.976;11.858;2023-04-16T15:31:15;13.00;99.90
16823;DHT22;8528;49.976;11.858;2023-04-16T15:33:42;12.90;99.90
16823;DHT22;8528;49.976;11.858;2023-04-16T15:36:09;12.90;99.90
16823;DHT22;8528;49.976;11.858;2023-04-16T15:38:36;12.90;99.90
16823;DHT22;8528;49.976;11.858;2023-04-16T15:41:03;12.70;99.90
16823;DHT22;8528;49.976;11.858;2023-04-16T15:43:31;12.60;99.90
16823;DHT22;8528;49.976;11.858;2023-04-16T15:45:57;12.60;99.90
16823;DHT22;8528;49.976;11.858;2023-04-16T15:48:24;12.30;99.90
16823;DHT22;8528;49.976;11.858;2023-04-16T15:50:52;12.30;99.90
16823;DHT22;8528;49.976;11.858;2023-04-16T15:53:19;12.10;99.90
16823;DHT22;8528;49.976;11.858;2023-04-16T15:55:46;12.00;99.90
16823;DHT22;8528;49.976;11.858;2023-04-16T15:58:16;11.90;99.90
16823;DHT22;8528;49.976;11.858;2023-04-16T16:00:43;11.70;99.90
16823;DHT22;8528;49.976;11.858;2023-04-16T16:03:12;11.80;99.90
16823;DHT22;8528;49.976;11.858;2023-04-16T16:05:40;11.60;99.90